Time;durP1;ratioP1;P1;durP2;ratioP2;P2;SDS_P1;SDS_P2;PMS_P1;PMS_P2;Temp;Humidity;BMP_temperature;BMP_pressure;BME280_temperature;BME280_humidity;BME280_pressure;Samples;Min_cycle;Max_cycle;Signal;HPM_P1;HPM_P2
2023/04/14 00:01:49;;;;;;;19.70;11.80;;;4.60;99.90;;;;;;5027840;28;20206;-49
2023/04/14 00:04:15;;;;;;;12.37;9.43;;;4.60;99.90;;;;;;5030279;28;20632;-49
2023/04/14 00:06:42;;;;;;;18.70;10.03;;;4.60;99.90;;;;;;5033723;28;20190;-49
2023/04/14 00:09:07;;;;;;;22.37;12.40;;;4.60;99.90;;;;;;5031977;28;20175;-49
2023/04/14 00:11:33;;;;;;;20.43;12.00;;;4.50;99.90;;;;;;5032570;28;20460;-49
2023/04/14 00:14:01;;;;;;;16.23;11.20;;;4.40;99.90;;;;;;5032634;28;20198;-49
2023/04/14 00:16:28;;;;;;;19.90;11.20;;;4.30;99.90;;;;;;5030839;28;20191;-49
2023/04/14 00:18:54;;;;;;;16.43;12.13;;;4.20;99.90;;;;;;5033057;28;20436;-48
2023/04/14 00:21:19;;;;;;;18.90;10.77;;;4.20;99.90;;;;;;5032470;28;20846;-50
2023/04/14 00:23:45;;;;;;;18.10;11.07;;;4.10;99.90;;;;;;5033022;28;20195;-49
2023/04/14 00:26:10;;;;;;;16.80;11.23;;;4.10;99.90;;;;;;5031014;28;20175;-49
2023/04/14 00:28:36;;;;;;;14.73;11.30;;;4.00;99.90;;;;;;5032522;28;20241;-49
2023/04/14 00:31:02;;;;;;;14.57;10.60;;;4.00;99.90;;;;;;5031378;28;20279;-49
2023/04/14 00:33:27;;;;;;;17.07;10.60;;;4.00;99.90;;;;;;5033044;28;20664;-49
2023/04/14 00:35:53;;;;;;;19.17;11.90;;;4.00;99.90;;;;;;5031544;28;20180;-48
2023/04/14 00:38:18;;;;;;;17.10;11.67;;;4.00;99.90;;;;;;5033195;28;20237;-49
2023/04/14 00:40:44;;;;;;;16.73;11.87;;;4.00;99.90;;;;;;5027157;28;20175;-49
2023/04/14 00:43:09;;;;;;;18.03;11.90;;;4.00;99.90;;;;;;5032203;28;20192;-49
2023/04/14 00:45:43;;;;;;;19.23;13.40;;;4.00;99.90;;;;;;5032580;28;20682;-49
2023/04/14 00:48:09;;;;;;;23.80;11.77;;;4.00;99.90;;;;;;5029947;28;20744;-48
2023/04/14 00:50:35;;;;;;;16.00;12.40;;;4.00;99.90;;;;;;5030680;28;20441;-49
2023/04/14 00:53:01;;;;;;;21.80;13.40;;;4.00;99.90;;;;;;5031251;28;20556;-49
2023/04/14 00:55:27;;;;;;;20.30;13.27;;;4.00;99.90;;;;;;5027501;28;20197;-50
2023/04/14 00:57:54;;;;;;;17.70;11.90;;;4.00;99.90;;;;;;5033097;28;20844;-48
2023/04/14 01:00:19;;;;;;;19.70;12.90;;;4.00;99.90;;;;;;5030618;28;20588;-49
2023/04/14 01:02:45;;;;;;;16.23;11.17;;;3.90;99.90;;;;;;5031001;28;20488;-49
2023/04/14 01:05:11;;;;;;;19.60;12.50;;;3.90;99.90;;;;;;5031206;28;20182;-49
2023/04/14 01:07:37;;;;;;;24.53;14.10;;;3.80;99.90;;;;;;5032611;28;20187;-48
2023/04/14 01:10:04;;;;;;;17.20;11.90;;;3.80;99.90;;;;;;5027099;28;20200;-49
2023/04/14 01:12:41;;;;;;;17.87;12.80;;;3.70;99.90;;;;;;5031996;28;20505;-48
2023/04/14 01:15:31;;;;;;;18.30;12.87;;;3.70;99.90;;;;;;5027189;28;20442;-49
2023/04/14 01:18:05;;;;;;;18.83;12.43;;;3.80;99.90;;;;;;5031507;28;20453;-48
2023/04/14 01:20:41;;;;;;;20.00;12.90;;;3.70;99.90;;;;;;5029118;28;20958;-48
2023/04/14 01:23:10;;;;;;;15.27;12.00;;;3.80;99.90;;;;;;5030749;28;20437;-48
2023/04/14 01:25:51;;;;;;;19.27;13.90;;;3.80;99.90;;;;;;5028415;28;20946;-48
2023/04/14 01:28:26;;;;;;;16.97;12.33;;;3.70;99.90;;;;;;5033056;28;20496;-49
2023/04/14 01:31:10;;;;;;;17.80;12.43;;;3.70;99.90;;;;;;5029369;28;20456;-49
2023/04/14 01:33:38;;;;;;;20.40;13.23;;;3.60;99.90;;;;;;5030647;28;20477;-50
2023/04/14 01:36:07;;;;;;;19.10;12.53;;;3.60;99.90;;;;;;5028603;28;20445;-48
2023/04/14 01:38:36;;;;;;;17.30;13.00;;;3.50;99.90;;;;;;5029553;28;20836;-48
2023/04/14 01:41:06;;;;;;;19.33;12.37;;;3.50;99.90;;;;;;5030968;28;20441;-48
2023/04/14 01:43:35;;;;;;;19.90;13.40;;;3.50;99.90;;;;;;5031745;28;20452;-48
2023/04/14 01:46:06;;;;;;;20.93;13.10;;;3.50;99.90;;;;;;5030768;28;20505;-47
2023/04/14 01:48:32;;;;;;;26.10;12.83;;;3.60;99.90;;;;;;5031548;28;20568;-48
2023/04/14 01:51:01;;;;;;;19.40;12.37;;;3.50;99.90;;;;;;5030305;28;20435;-48
2023/04/14 01:53:27;;;;;;;24.70;13.80;;;3.50;99.90;;;;;;5027069;28;20563;-49
2023/04/14 01:55:55;;;;;;;18.90;13.50;;;3.40;99.90;;;;;;5030116;28;20524;-48
2023/04/14 01:58:22;;;;;;;17.70;12.53;;;3.40;99.90;;;;;;5029897;28;20472;-48
2023/04/14 02:00:50;;;;;;;19.20;13.53;;;3.40;99.90;;;;;;5030248;28;20532;-48
2023/04/14 02:03:20;;;;;;;16.17;11.63;;;3.30;99.90;;;;;;5027206;28;20445;-48
2023/04/14 02:05:47;;;;;;;24.17;13.20;;;3.30;99.90;;;;;;5031544;28;20468;-48
2023/04/14 02:08:15;;;;;;;21.40;14.17;;;3.30;99.90;;;;;;5029683;28;20942;-48
2023/04/14 02:10:44;;;;;;;23.47;14.40;;;3.20;99.90;;;;;;5030737;28;20442;-48
2023/04/14 02:13:11;;;;;;;19.30;13.27;;;3.20;99.90;;;;;;5030092;28;20471;-48
2023/04/14 02:15:38;;;;;;;19.93;12.73;;;3.20;99.90;;;;;;5030261;28;21000;-48
2023/04/14 02:18:05;;;;;;;19.47;13.30;;;3.20;99.90;;;;;;5028973;28;20442;-49
2023/04/14 02:20:32;;;;;;;22.87;13.70;;;3.20;99.90;;;;;;5031183;28;20437;-48
2023/04/14 02:22:59;;;;;;;22.57;14.13;;;3.20;99.90;;;;;;5028998;28;20485;-48
2023/04/14 02:25:29;;;;;;;19.50;12.43;;;3.10;99.90;;;;;;5031954;28;20574;-48
2023/04/14 02:27:59;;;;;;;18.30;12.27;;;3.10;99.90;;;;;;5027853;28;20429;-48
2023/04/14 02:30:38;;;;;;;18.53;13.07;;;3.00;99.90;;;;;;5030201;28;20453;-49
2023/04/14 02:33:09;;;;;;;19.00;12.17;;;2.90;99.90;;;;;;5030024;28;20564;-48
2023/04/14 02:35:43;;;;;;;22.10;13.73;;;2.90;99.90;;;;;;5030309;28;20438;-48
2023/04/14 02:38:22;;;;;;;18.00;12.70;;;2.90;99.90;;;;;;5028262;28;20541;-48
2023/04/14 02:40:49;;;;;;;21.10;12.57;;;2.90;99.90;;;;;;5028301;28;20430;-48
2023/04/14 02:43:25;;;;;;;18.20;13.27;;;2.90;99.90;;;;;;5029957;28;20437;-47
2023/04/14 02:45:54;;;;;;;23.20;13.93;;;2.90;99.90;;;;;;5030224;28;20474;-47
2023/04/14 02:48:24;;;;;;;19.13;12.70;;;2.90;99.90;;;;;;5030186;28;20478;-48
2023/04/14 02:50:53;;;;;;;30.90;14.03;;;2.90;99.90;;;;;;5031440;28;20488;-47
2023/04/14 02:53:24;;;;;;;25.03;13.60;;;3.00;99.90;;;;;;5025442;28;20474;-47
2023/04/14 02:55:52;;;;;;;23.83;14.37;;;3.00;99.90;;;;;;5031294;28;20469;-47
2023/04/14 02:58:19;;;;;;;22.93;13.60;;;3.00;99.90;;;;;;5026259;28;20444;-48
2023/04/14 03:00:45;;;;;;;21.50;12.93;;;3.10;99.90;;;;;;5030079;28;20438;-48
2023/04/14 03:03:12;;;;;;;22.40;14.40;;;3.10;99.90;;;;;;5029351;28;20532;-47
2023/04/14 03:05:42;;;;;;;22.83;14.57;;;3.00;99.90;;;;;;5028880;28;20938;-47
2023/04/14 03:08:10;;;;;;;22.30;12.57;;;3.00;99.90;;;;;;5027966;28;20442;-47
2023/04/14 03:10:37;;;;;;;22.77;14.20;;;3.00;99.90;;;;;;5029601;28;20791;-47
2023/04/14 03:13:05;;;;;;;22.30;13.70;;;3.10;99.90;;;;;;5028763;28;20466;-48
2023/04/14 03:15:32;;;;;;;24.43;14.17;;;3.00;99.90;;;;;;5030231;28;20808;-47
2023/04/14 03:17:58;;;;;;;26.30;14.27;;;3.00;99.90;;;;;;5028845;28;20438;-47
2023/04/14 03:20:25;;;;;;;24.10;14.57;;;3.00;99.90;;;;;;5029762;28;20434;-48
2023/04/14 03:23:05;;;;;;;20.50;13.27;;;3.00;99.90;;;;;;5026400;28;21179;-47
2023/04/14 03:25:34;;;;;;;23.17;14.43;;;3.00;99.90;;;;;;5028521;28;20961;-47
2023/04/14 03:28:02;;;;;;;26.67;13.80;;;3.00;99.90;;;;;;5029447;28;20842;-48
2023/04/14 03:30:33;;;;;;;24.23;14.13;;;2.90;99.90;;;;;;5029519;28;20525;-47
2023/04/14 03:33:03;;;;;;;19.43;12.70;;;2.90;99.90;;;;;;5027608;28;20466;-47
2023/04/14 03:35:29;;;;;;;23.77;13.40;;;2.80;99.90;;;;;;5030303;28;20426;-48
2023/04/14 03:37:58;;;;;;;19.63;13.10;;;2.80;99.90;;;;;;5027424;28;20446;-47
2023/04/14 03:40:29;;;;;;;18.07;12.43;;;2.70;99.90;;;;;;5028856;28;20446;-47
2023/04/14 03:42:57;;;;;;;18.90;12.27;;;2.70;99.90;;;;;;5029586;28;20448;-48
2023/04/14 03:45:24;;;;;;;24.13;14.03;;;2.70;99.90;;;;;;5029124;28;20444;-47
2023/04/14 03:47:54;;;;;;;22.60;14.03;;;2.70;99.90;;;;;;5027941;28;20485;-47
2023/04/14 03:50:22;;;;;;;21.73;12.57;;;2.70;99.90;;;;;;5026061;28;20438;-47
2023/04/14 03:52:49;;;;;;;22.43;13.63;;;2.70;99.90;;;;;;5025762;28;20527;-47
2023/04/14 03:55:17;;;;;;;26.70;14.67;;;2.70;99.90;;;;;;5029999;28;20430;-47
2023/04/14 03:57:44;;;;;;;25.03;14.63;;;2.70;99.90;;;;;;5025931;28;20439;-48
2023/04/14 04:00:12;;;;;;;24.87;15.23;;;2.70;99.90;;;;;;5029015;28;20440;-47
2023/04/14 04:02:40;;;;;;;22.40;14.37;;;2.70;99.90;;;;;;5028804;28;20441;-47
2023/04/14 04:05:07;;;;;;;23.10;15.50;;;2.70;99.90;;;;;;5028054;28;20446;-47
2023/04/14 04:07:34;;;;;;;21.93;13.77;;;2.70;99.90;;;;;;5023869;28;20947;-47
2023/04/14 04:10:05;;;;;;;24.03;13.43;;;2.70;99.90;;;;;;5029549;28;20500;-48
2023/04/14 04:12:32;;;;;;;20.30;13.63;;;2.70;99.90;;;;;;5026497;28;20560;-48
2023/04/14 04:14:58;;;;;;;24.87;14.57;;;2.70;99.90;;;;;;5029805;28;20437;-47
2023/04/14 04:17:25;;;;;;;21.43;13.50;;;2.60;99.90;;;;;;5027594;28;20456;-47
2023/04/14 04:19:53;;;;;;;27.23;15.33;;;2.60;99.90;;;;;;5029287;28;20184;-48
2023/04/14 04:22:20;;;;;;;26.13;14.67;;;2.60;99.90;;;;;;5025559;28;20945;-47
2023/04/14 04:24:47;;;;;;;22.83;13.43;;;2.60;99.90;;;;;;5027425;28;20445;-47
2023/04/14 04:27:14;;;;;;;20.37;13.50;;;2.60;99.90;;;;;;5028632;28;20796;-47
2023/04/14 04:29:40;;;;;;;21.87;14.10;;;2.60;99.90;;;;;;5027786;28;21185;-47
2023/04/14 04:32:06;;;;;;;20.33;13.03;;;2.60;99.90;;;;;;5028006;28;20835;-49
2023/04/14 04:34:33;;;;;;;24.97;14.67;;;2.70;99.90;;;;;;5027817;28;20226;-48
2023/04/14 04:37:02;;;;;;;23.87;14.80;;;2.70;99.90;;;;;;5026985;28;20237;-48
2023/04/14 04:39:31;;;;;;;21.70;13.60;;;2.70;99.90;;;;;;5029107;28;20444;-47
2023/04/14 04:42:06;;;;;;;22.73;14.80;;;2.70;99.90;;;;;;5028191;28;20460;-47
2023/04/14 04:44:33;;;;;;;21.80;14.27;;;2.70;99.90;;;;;;5028941;28;20524;-47
2023/04/14 04:46:59;;;;;;;24.30;14.60;;;2.70;99.90;;;;;;5028217;28;20521;-47
2023/04/14 04:49:25;;;;;;;22.90;14.23;;;2.70;99.90;;;;;;5029443;28;20501;-47
2023/04/14 04:51:51;;;;;;;20.03;14.00;;;2.70;99.90;;;;;;5032585;28;20953;-47
2023/04/14 04:54:16;;;;;;;24.37;13.80;;;2.70;99.90;;;;;;5032655;28;20190;-47
2023/04/14 04:56:42;;;;;;;31.90;13.97;;;2.70;99.90;;;;;;5031573;28;20184;-48
2023/04/14 04:59:08;;;;;;;22.60;13.80;;;2.60;99.90;;;;;;5031359;28;20266;-47
2023/04/14 05:01:34;;;;;;;20.90;14.03;;;2.60;99.90;;;;;;5028512;28;20205;-49
2023/04/14 05:04:00;;;;;;;25.20;15.50;;;2.70;99.90;;;;;;5032379;28;20438;-47
2023/04/14 05:06:27;;;;;;;21.40;13.27;;;2.70;99.90;;;;;;5030935;28;22355;-47
2023/04/14 05:08:53;;;;;;;21.70;14.43;;;2.70;99.90;;;;;;5032624;28;20278;-47
2023/04/14 05:11:19;;;;;;;24.87;14.10;;;2.70;99.90;;;;;;5031559;28;20438;-48
2023/04/14 05:13:44;;;;;;;21.10;14.10;;;2.80;99.90;;;;;;5032340;28;20821;-48
2023/04/14 05:16:14;;;;;;;21.37;13.23;;;2.80;99.90;;;;;;5032227;28;20659;-47
2023/04/14 05:18:41;;;;;;;20.20;12.70;;;2.90;99.90;;;;;;5030998;28;20187;-47
2023/04/14 05:21:09;;;;;;;22.73;14.37;;;2.90;99.90;;;;;;5031023;28;20944;-48
2023/04/14 05:23:36;;;;;;;24.07;14.97;;;3.00;99.90;;;;;;5032038;28;20452;-47
2023/04/14 05:26:03;;;;;;;22.47;14.33;;;3.10;99.90;;;;;;5029005;28;20841;-48
2023/04/14 05:28:29;;;;;;;23.17;15.70;;;3.20;99.90;;;;;;5032862;28;20948;-48
2023/04/14 05:30:55;;;;;;;26.30;14.93;;;3.30;99.90;;;;;;5031391;28;20446;-47
2023/04/14 05:33:21;;;;;;;28.17;15.97;;;3.40;99.90;;;;;;5030837;28;20567;-48
2023/04/14 05:35:46;;;;;;;25.60;16.80;;;3.50;99.90;;;;;;5028571;28;20211;-48
2023/04/14 05:38:13;;;;;;;23.87;14.53;;;3.70;99.90;;;;;;5030342;28;20908;-48
2023/04/14 05:40:39;;;;;;;25.70;16.50;;;3.80;99.90;;;;;;5031345;28;20263;-48
2023/04/14 05:43:04;;;;;;;24.83;15.60;;;3.90;99.90;;;;;;5029176;28;20950;-48
2023/04/14 05:45:30;;;;;;;24.77;16.30;;;4.00;99.90;;;;;;5031856;28;20433;-48
2023/04/14 05:47:56;;;;;;;25.20;16.70;;;4.10;99.90;;;;;;5029550;28;20318;-48
2023/04/14 05:50:21;;;;;;;24.83;15.90;;;4.20;99.90;;;;;;5031223;28;20266;-49
2023/04/14 05:52:50;;;;;;;25.07;15.80;;;4.20;99.90;;;;;;5029805;28;20219;-48
2023/04/14 05:55:17;;;;;;;34.27;19.77;;;4.30;99.90;;;;;;5029240;28;20194;-49
2023/04/14 05:57:43;;;;;;;29.80;17.53;;;4.40;99.90;;;;;;5031184;28;20442;-48
2023/04/14 06:00:11;;;;;;;23.63;14.67;;;4.50;99.90;;;;;;5029427;28;20455;-49
2023/04/14 06:02:37;;;;;;;27.80;17.97;;;4.60;99.90;;;;;;5030412;28;20561;-48
2023/04/14 06:05:05;;;;;;;28.67;16.63;;;4.70;99.90;;;;;;5030700;28;20438;-50
2023/04/14 06:07:30;;;;;;;25.57;16.90;;;4.80;99.90;;;;;;5028649;28;20975;-50
2023/04/14 06:09:56;;;;;;;23.83;17.27;;;4.90;99.90;;;;;;5031614;28;20434;-50
2023/04/14 06:12:22;;;;;;;26.70;16.90;;;5.00;99.90;;;;;;5030141;28;20265;-50
2023/04/14 06:14:47;;;;;;;26.30;17.50;;;5.10;99.90;;;;;;5031646;28;20262;-50
2023/04/14 06:17:13;;;;;;;31.53;17.40;;;5.20;99.90;;;;;;5030985;28;20194;-51
2023/04/14 06:19:38;;;;;;;30.10;17.53;;;5.30;99.90;;;;;;5029592;28;20697;-51
2023/04/14 06:22:07;;;;;;;25.53;16.17;;;5.40;99.90;;;;;;5031171;28;20307;-50
2023/04/14 06:24:33;;;;;;;25.43;17.80;;;5.50;99.90;;;;;;5030533;28;20221;-50
2023/04/14 06:27:00;;;;;;;25.93;16.83;;;5.60;99.90;;;;;;5029491;28;20936;-50
2023/04/14 06:29:26;;;;;;;34.33;17.90;;;5.80;99.90;;;;;;5027440;28;20521;-50
2023/04/14 06:31:51;;;;;;;24.30;17.40;;;5.90;99.90;;;;;;5030881;28;20772;-51
2023/04/14 06:34:17;;;;;;;26.73;17.23;;;6.10;99.90;;;;;;5028823;28;20434;-51
2023/04/14 06:36:43;;;;;;;24.67;16.23;;;6.30;99.90;;;;;;5032152;28;20200;-52
2023/04/14 06:39:08;;;;;;;25.87;17.23;;;6.50;99.90;;;;;;5031460;28;20192;-51
2023/04/14 06:41:34;;;;;;;25.73;17.27;;;6.70;99.90;;;;;;5029733;28;20187;-51
2023/04/14 06:44:00;;;;;;;23.20;16.93;;;7.00;99.90;;;;;;5030168;28;20202;-51
2023/04/14 06:46:25;;;;;;;29.47;16.70;;;7.30;99.90;;;;;;5029177;28;20191;-50
2023/04/14 06:48:51;;;;;;;23.13;15.50;;;7.40;99.90;;;;;;5031203;28;20235;-51
2023/04/14 06:51:17;;;;;;;20.67;15.07;;;7.60;99.90;;;;;;5027391;28;20215;-50
2023/04/14 06:53:43;;;;;;;20.67;14.63;;;7.70;99.90;;;;;;5030866;28;20219;-50
2023/04/14 06:56:08;;;;;;;18.30;13.27;;;7.90;99.90;;;;;;5029529;28;20442;-51
2023/04/14 06:58:34;;;;;;;20.87;12.87;;;8.10;99.90;;;;;;5030404;28;20187;-51
2023/04/14 07:01:01;;;;;;;18.30;11.60;;;8.40;99.90;;;;;;5031012;28;20277;-51
2023/04/14 07:03:29;;;;;;;17.07;11.10;;;8.70;99.90;;;;;;5029980;28;20186;-52
2023/04/14 07:06:05;;;;;;;16.10;11.10;;;9.00;99.90;;;;;;5028905;28;20524;-51
2023/04/14 07:08:33;;;;;;;14.70;10.03;;;9.20;1.00;;;;;;5029642;28;20473;-51
2023/04/14 07:11:00;;;;;;;13.83;9.57;;;9.40;1.00;;;;;;5031288;28;20448;-52
2023/04/14 07:13:26;;;;;;;12.10;9.00;;;9.60;1.00;;;;;;5032958;28;20477;-52
2023/04/14 07:15:52;;;;;;;14.43;9.33;;;9.90;1.00;;;;;;5033750;28;20406;-52
2023/04/14 07:18:17;;;;;;;12.70;8.20;;;10.20;99.90;;;;;;5032515;28;20195;-52
2023/04/14 07:20:43;;;;;;;12.83;8.33;;;10.50;49.00;;;;;;5033791;28;20282;-51
2023/04/14 07:23:08;;;;;;;12.20;8.17;;;10.80;1.00;;;;;;5033358;28;20199;-51
2023/04/14 07:25:35;;;;;;;11.80;7.70;;;11.00;1.00;;;;;;5034089;28;20611;-50
2023/04/14 07:28:01;;;;;;;12.33;8.43;;;11.20;1.00;;;;;;5033734;28;20195;-50
2023/04/14 07:30:27;;;;;;;10.70;7.60;;;11.40;1.00;;;;;;5033678;28;20418;-50
2023/04/14 07:32:53;;;;;;;14.43;7.40;;;11.50;99.90;;;;;;5033053;28;20519;-52
2023/04/14 07:35:18;;;;;;;14.63;8.37;;;11.60;99.90;;;;;;5033502;28;20214;-51
2023/04/14 07:37:44;;;;;;;12.80;8.40;;;11.70;1.00;;;;;;5035297;28;20635;-50
2023/04/14 07:40:09;;;;;;;10.83;7.80;;;11.80;1.00;;;;;;5036768;28;20601;-51
2023/04/14 07:42:35;;;;;;;13.03;7.60;;;12.00;1.00;;;;;;5033753;28;20179;-51
2023/04/14 07:45:02;;;;;;;11.50;7.60;;;12.10;1.00;;;;;;5033401;28;20202;-51
2023/04/14 07:47:28;;;;;;;12.17;6.70;;;12.30;95.50;;;;;;5035716;28;20980;-51
2023/04/14 07:49:55;;;;;;;13.57;7.63;;;12.40;15.00;;;;;;5032827;28;20499;-51
2023/04/14 07:52:21;;;;;;;12.10;6.43;;;12.50;1.00;;;;;;5031836;28;20253;-50
2023/04/14 07:54:47;;;;;;;11.33;6.90;;;12.60;1.00;;;;;;5033930;28;20475;-50
2023/04/14 07:57:13;;;;;;;11.67;6.60;;;12.70;1.00;;;;;;5032940;28;20203;-50
2023/04/14 07:59:41;;;;;;;9.57;6.50;;;12.70;1.00;;;;;;5033728;28;20176;-51
2023/04/14 08:02:07;;;;;;;6.67;5.50;;;12.70;1.00;;;;;;5032985;28;20180;-50
2023/04/14 08:04:33;;;;;;;11.27;6.83;;;12.60;1.00;;;;;;5031489;28;20445;-50
2023/04/14 08:06:59;;;;;;;7.93;6.00;;;12.50;1.00;;;;;;5032805;28;20430;-50
2023/04/14 08:09:24;;;;;;;10.00;6.03;;;12.20;1.00;;;;;;5032823;28;20229;-50
2023/04/14 08:11:50;;;;;;;9.50;6.50;;;12.10;1.00;;;;;;5030199;28;20187;-51
2023/04/14 08:14:16;;;;;;;11.17;6.97;;;12.00;1.00;;;;;;5029652;28;20266;-50
2023/04/14 08:16:42;;;;;;;11.47;6.87;;;12.00;1.00;;;;;;5028375;28;20606;-51
2023/04/14 08:19:08;;;;;;;10.53;5.93;;;12.10;1.00;;;;;;5030153;28;20249;-51
2023/04/14 08:21:33;;;;;;;9.10;6.03;;;12.10;1.00;;;;;;5028049;28;20450;-50
2023/04/14 08:23:59;;;;;;;8.33;5.60;;;12.30;1.00;;;;;;5030402;28;20183;-50
2023/04/14 08:26:26;;;;;;;9.90;5.13;;;12.40;1.00;;;;;;5032349;28;20592;-50
2023/04/14 08:28:52;;;;;;;11.67;6.03;;;12.50;1.00;;;;;;5032835;28;20830;-50
2023/04/14 08:31:19;;;;;;;10.60;4.93;;;12.60;1.00;;;;;;5032952;28;21013;-50
2023/04/14 08:33:44;;;;;;;12.37;4.97;;;12.70;1.00;;;;;;5031810;28;20482;-50
2023/04/14 08:36:10;;;;;;;6.77;4.33;;;12.90;1.00;;;;;;5033478;28;20517;-50
2023/04/14 08:38:35;;;;;;;8.53;3.87;;;12.90;1.00;;;;;;5031025;28;20195;-50
2023/04/14 08:41:06;;;;;;;9.40;3.97;;;13.10;1.00;;;;;;5033961;28;20213;-50
2023/04/14 08:43:31;;;;;;;9.40;3.60;;;13.20;1.00;;;;;;5032509;28;20194;-50
2023/04/14 08:45:59;;;;;;;6.73;3.10;;;13.20;1.00;;;;;;5031740;28;20446;-50
2023/04/14 08:48:29;;;;;;;5.40;3.33;;;13.20;1.00;;;;;;5033274;28;20748;-50
2023/04/14 08:51:09;;;;;;;6.43;3.10;;;13.10;1.00;;;;;;5033111;28;21129;-50
2023/04/14 08:53:41;;;;;;;5.83;2.67;;;13.20;1.00;;;;;;5031978;28;20604;-50
2023/04/14 08:56:08;;;;;;;4.90;2.70;;;13.20;1.00;;;;;;5032282;28;20957;-50
2023/04/14 08:58:33;;;;;;;3.33;2.37;;;13.30;1.00;;;;;;5033407;28;20553;-50
2023/04/14 09:01:02;;;;;;;4.83;2.30;;;13.40;1.00;;;;;;5031571;28;20505;-50
2023/04/14 09:03:27;;;;;;;4.73;2.17;;;13.40;1.00;;;;;;5033260;28;20219;-51
2023/04/14 09:05:53;;;;;;;9.17;2.50;;;13.40;1.00;;;;;;5031278;28;20471;-50
2023/04/14 09:08:19;;;;;;;4.30;1.87;;;13.50;1.00;;;;;;5031621;28;20705;-51
2023/04/14 09:10:45;;;;;;;3.87;1.83;;;13.50;1.00;;;;;;5032146;28;20196;-50
2023/04/14 09:13:11;;;;;;;9.40;2.10;;;13.70;1.00;;;;;;5032065;28;20209;-50
2023/04/14 09:15:37;;;;;;;6.57;2.40;;;13.80;1.00;;;;;;5028855;28;20792;-52
2023/04/14 09:18:03;;;;;;;3.77;1.90;;;14.00;1.00;;;;;;5031611;28;20436;-50
2023/04/14 09:20:29;;;;;;;6.73;1.90;;;14.10;1.00;;;;;;5031268;28;20175;-50
2023/04/14 09:22:55;;;;;;;8.97;2.13;;;14.10;1.00;;;;;;5032134;28;20453;-51
2023/04/14 09:25:21;;;;;;;6.90;2.50;;;14.20;1.00;;;;;;5031356;28;20495;-51
2023/04/14 09:27:48;;;;;;;4.67;2.30;;;14.30;1.00;;;;;;5033034;28;20525;-51
2023/04/14 09:30:16;;;;;;;6.30;2.57;;;14.30;1.00;;;;;;5031399;28;20445;-51
2023/04/14 09:32:43;;;;;;;11.00;2.50;;;14.40;1.00;;;;;;5031654;28;20619;-51
2023/04/14 09:35:12;;;;;;;8.27;2.20;;;14.60;1.00;;;;;;5026928;28;20434;-50
2023/04/14 09:37:43;;;;;;;10.03;2.60;;;14.60;1.00;;;;;;5030134;28;20438;-51
2023/04/14 09:40:09;;;;;;;3.77;2.03;;;14.40;1.00;;;;;;5030651;28;20446;-53
2023/04/14 09:42:39;;;;;;;5.67;2.07;;;14.60;1.00;;;;;;5032165;28;20438;-51
2023/04/14 09:45:05;;;;;;;7.10;2.37;;;14.80;1.00;;;;;;5030642;28;20454;-51
2023/04/14 09:47:31;;;;;;;9.43;2.20;;;14.70;1.00;;;;;;5030683;28;20474;-51
2023/04/14 09:50:02;;;;;;;6.23;2.40;;;14.70;1.00;;;;;;5029937;28;20431;-51
2023/04/14 09:52:43;;;;;;;12.13;2.40;;;14.70;1.00;;;;;;5030952;28;20472;-51
2023/04/14 09:55:11;;;;;;;5.47;2.50;;;14.80;1.00;;;;;;5030454;28;20527;-49
2023/04/14 09:57:39;;;;;;;6.47;1.90;;;14.90;1.00;;;;;;5031354;28;20477;-50
2023/04/14 10:00:21;;;;;;;5.23;2.07;;;14.90;1.00;;;;;;5030757;28;20513;-51
2023/04/14 10:02:54;;;;;;;7.20;2.17;;;15.00;1.00;;;;;;5029772;28;20465;-51
2023/04/14 10:05:24;;;;;;;6.00;1.73;;;15.10;1.00;;;;;;5030047;28;20437;-51
2023/04/14 10:07:50;;;;;;;4.83;1.80;;;15.20;1.00;;;;;;5031089;28;20434;-50
2023/04/14 10:10:16;;;;;;;6.03;1.90;;;15.30;1.00;;;;;;5030483;28;20990;-51
2023/04/14 10:12:45;;;;;;;8.00;2.03;;;15.40;1.00;;;;;;5032214;28;20220;-51
2023/04/14 10:15:11;;;;;;;4.63;1.90;;;15.40;1.00;;;;;;5029512;28;20180;-52
2023/04/14 10:17:39;;;;;;;6.77;1.77;;;15.50;1.00;;;;;;5031530;28;20794;-52
2023/04/14 10:20:06;;;;;;;6.80;1.63;;;15.50;1.00;;;;;;5030517;28;20434;-51
2023/04/14 10:22:32;;;;;;;4.33;1.60;;;15.60;1.00;;;;;;5030863;28;20447;-51
2023/04/14 10:24:58;;;;;;;3.13;1.30;;;15.70;1.00;;;;;;5031192;28;20512;-51
2023/04/14 10:27:29;;;;;;;5.73;1.37;;;15.80;1.00;;;;;;5029709;28;20189;-51
2023/04/14 10:29:55;;;;;;;5.20;1.60;;;16.00;1.00;;;;;;5028366;28;20458;-51
2023/04/14 10:32:23;;;;;;;6.43;1.80;;;16.10;1.00;;;;;;5030036;28;20590;-51
2023/04/14 10:35:09;;;;;;;4.50;1.93;;;16.30;1.00;;;;;;5029642;28;20483;-52
2023/04/14 10:37:35;;;;;;;3.90;1.80;;;16.40;1.00;;;;;;5030820;28;20498;-52
2023/04/14 10:40:05;;;;;;;5.77;2.10;;;16.60;1.00;;;;;;5030387;28;20438;-51
2023/04/14 10:42:51;;;;;;;2.80;1.53;;;16.80;1.00;;;;;;5027896;28;20443;-51
2023/04/14 10:45:17;;;;;;;5.00;1.70;;;17.10;1.00;;;;;;5030315;28;20515;-51
2023/04/14 10:47:44;;;;;;;7.90;1.90;;;17.40;1.00;;;;;;5030184;28;20590;-51
2023/04/14 10:50:14;;;;;;;6.03;1.33;;;17.50;1.00;;;;;;5028656;28;20444;-52
2023/04/14 10:52:54;;;;;;;6.50;1.40;;;17.50;1.00;;;;;;5029022;28;20472;-52
2023/04/14 10:55:24;;;;;;;4.43;1.70;;;17.60;1.00;;;;;;5028246;28;20509;-53
2023/04/14 10:57:50;;;;;;;5.00;1.77;;;17.80;1.00;;;;;;5029731;28;20437;-52
2023/04/14 11:00:22;;;;;;;4.53;1.40;;;17.90;1.00;;;;;;5030026;28;21110;-53
2023/04/14 11:02:55;;;;;;;6.73;1.83;;;18.00;1.00;;;;;;5030198;28;20186;-52
2023/04/14 11:05:21;;;;;;;6.67;2.00;;;18.00;1.00;;;;;;5028680;28;20436;-53
2023/04/14 11:07:50;;;;;;;5.37;1.57;;;18.10;1.00;;;;;;5030325;28;20998;-52
2023/04/14 11:10:16;;;;;;;3.53;1.50;;;18.10;1.00;;;;;;5030054;28;20440;-53
2023/04/14 11:12:42;;;;;;;5.60;1.93;;;18.00;1.00;;;;;;5029557;28;20469;-52
2023/04/14 11:15:08;;;;;;;5.90;1.67;;;17.80;1.00;;;;;;5027242;28;20193;-52
2023/04/14 11:17:44;;;;;;;7.90;1.50;;;17.60;1.00;;;;;;5028625;28;20436;-52
2023/04/14 11:20:14;;;;;;;5.67;1.73;;;17.60;1.00;;;;;;5028918;28;20197;-53
2023/04/14 11:22:43;;;;;;;4.07;1.20;;;17.60;1.00;;;;;;5027236;28;20451;-52
2023/04/14 11:25:15;;;;;;;4.10;1.73;;;17.50;1.00;;;;;;5029800;28;20935;-53
2023/04/14 11:27:42;;;;;;;3.83;1.33;;;17.50;1.00;;;;;;5028351;28;20526;-53
2023/04/14 11:30:18;;;;;;;3.07;1.00;;;17.40;1.00;;;;;;5027258;28;20440;-52
2023/04/14 11:32:52;;;;;;;2.90;1.13;;;17.50;1.00;;;;;;5029611;28;20819;-52
2023/04/14 11:35:19;;;;;;;1.90;1.20;;;17.60;1.00;;;;;;5028098;28;20989;-52
2023/04/14 11:37:45;;;;;;;1.40;1.23;;;17.40;1.00;;;;;;5031833;28;20531;-52
2023/04/14 11:40:12;;;;;;;3.57;1.23;;;17.20;1.00;;;;;;5033249;28;20473;-51
2023/04/14 11:42:46;;;;;;;7.90;1.50;;;17.10;1.00;;;;;;5036937;28;20435;-51
2023/04/14 11:45:15;;;;;;;6.87;2.07;;;16.80;1.00;;;;;;5042343;28;20435;-51
2023/04/14 11:48:02;;;;;;;4.03;1.60;;;16.50;1.00;;;;;;5026058;28;20495;-51
2023/04/14 11:50:31;;;;;;;2.20;1.60;;;16.40;1.00;;;;;;5030064;28;20436;-51
2023/04/14 11:52:59;;;;;;;6.37;2.00;;;16.30;1.00;;;;;;5028974;28;21620;-51
2023/04/14 11:55:26;;;;;;;1.73;1.20;;;16.10;1.00;;;;;;5030233;28;20917;-52
2023/04/14 11:57:52;;;;;;;5.57;1.83;;;16.00;1.00;;;;;;5029444;28;20452;-52
2023/04/14 12:00:18;;;;;;;5.27;1.90;;;16.00;1.00;;;;;;5030584;28;20426;-51
2023/04/14 12:02:44;;;;;;;4.63;1.90;;;15.90;1.00;;;;;;5034307;28;20472;-51
2023/04/14 12:05:12;;;;;;;5.17;2.30;;;15.90;1.00;;;;;;5032664;28;20270;-51
2023/04/14 12:07:40;;;;;;;5.00;2.20;;;15.70;1.00;;;;;;5031451;28;20443;-51
2023/04/14 12:10:06;;;;;;;4.20;2.03;;;15.60;1.00;;;;;;5033179;28;20449;-51
2023/04/14 12:12:32;;;;;;;6.27;2.17;;;15.40;1.00;;;;;;5033467;28;20473;-52
2023/04/14 12:14:58;;;;;;;4.33;2.00;;;15.20;1.00;;;;;;5033572;28;20961;-51
2023/04/14 12:17:24;;;;;;;5.03;2.70;;;15.20;1.00;;;;;;5032628;28;20691;-51
2023/04/14 12:19:50;;;;;;;3.83;1.90;;;15.40;1.00;;;;;;5033278;28;20496;-51
2023/04/14 12:22:30;;;;;;;4.07;2.23;;;15.50;1.00;;;;;;5032415;28;20433;-52
2023/04/14 12:24:56;;;;;;;4.60;3.13;;;15.50;1.00;;;;;;5032629;28;20179;-51
2023/04/14 12:27:23;;;;;;;8.60;2.80;;;15.30;1.00;;;;;;5032661;28;20848;-52
2023/04/14 12:29:50;;;;;;;6.50;2.93;;;15.20;1.00;;;;;;5031941;28;21164;-51
2023/04/14 12:32:16;;;;;;;4.27;2.80;;;15.10;1.00;;;;;;5031334;28;20453;-51
2023/04/14 12:35:12;;;;;;;4.37;2.63;;;15.00;1.00;;;;;;5030964;28;20928;-50
2023/04/14 12:37:40;;;;;;;5.20;3.60;;;14.90;1.00;;;;;;5022990;28;20591;-52
2023/04/14 12:40:06;;;;;;;5.83;3.40;;;15.00;1.00;;;;;;5029730;28;20433;-51
2023/04/14 12:42:47;;;;;;;5.90;3.77;;;15.00;1.00;;;;;;5031728;28;20523;-51
2023/04/14 12:45:15;;;;;;;8.93;4.63;;;15.00;1.00;;;;;;5033705;28;20433;-51
2023/04/14 12:47:51;;;;;;;5.13;3.77;;;14.90;1.00;;;;;;5030530;28;20482;-51
2023/04/14 12:50:28;;;;;;;4.27;3.70;;;14.60;1.00;;;;;;5031681;28;20436;-51